Time;durP1;ratioP1;P1;durP2;ratioP2;P2;SDS_P1;SDS_P2;PMS_P1;PMS_P2;Temp;Humidity;BMP_temperature;BMP_pressure;BME280_temperature;BME280_humidity;BME280_pressure;Samples;Min_cycle;Max_cycle;Signal;HPM_P1;HPM_P2
2022/04/16 00:00:12;;;;;;;1.35;1.25;;;18.30;45.70;;;;;;6170011;23;20266;-85
2022/04/16 00:02:39;;;;;;;1.42;1.33;;;18.20;45.80;;;;;;6170331;23;20219;-86
2022/04/16 00:05:09;;;;;;;1.40;1.30;;;18.30;45.90;;;;;;6219853;23;20177;-86
2022/04/16 00:07:40;;;;;;;1.40;1.30;;;18.20;45.60;;;;;;6144540;23;20153;-85
2022/04/16 00:10:06;;;;;;;1.30;1.20;;;18.20;45.80;;;;;;6120742;23;20188;-86
2022/04/16 00:12:33;;;;;;;1.50;1.40;;;18.20;46.00;;;;;;6220243;23;20199;-85
2022/04/16 00:15:01;;;;;;;1.30;1.20;;;18.20;46.00;;;;;;6168989;23;20149;-84
2022/04/16 00:17:28;;;;;;;1.20;1.10;;;18.20;45.90;;;;;;6120212;23;20487;-84
2022/04/16 00:19:55;;;;;;;1.20;1.10;;;18.20;45.90;;;;;;6144307;23;20536;-84
2022/04/16 00:22:23;;;;;;;1.30;1.20;;;18.20;46.00;;;;;;6168727;23;20207;-84
2022/04/16 00:24:50;;;;;;;1.30;1.20;;;18.20;46.00;;;;;;6170509;23;20150;-84
2022/04/16 00:27:17;;;;;;;1.33;1.23;;;18.20;45.90;;;;;;6168429;23;20211;-84
2022/04/16 00:29:44;;;;;;;1.30;1.20;;;18.20;46.00;;;;;;6145062;23;20153;-85
2022/04/16 00:32:11;;;;;;;1.38;1.27;;;18.10;45.90;;;;;;6168809;23;20489;-84
2022/04/16 00:34:38;;;;;;;1.75;1.17;;;18.20;46.00;;;;;;6168675;23;20164;-84
2022/04/16 00:37:05;;;;;;;1.40;1.30;;;18.20;45.80;;;;;;6120580;23;20338;-84
2022/04/16 00:39:32;;;;;;;1.13;1.10;;;18.20;45.90;;;;;;6119532;23;20189;-85
2022/04/16 00:42:00;;;;;;;1.42;1.33;;;18.10;46.00;;;;;;6168733;23;20203;-84
2022/04/16 00:44:27;;;;;;;1.20;1.10;;;18.20;46.10;;;;;;6169329;23;20230;-85
2022/04/16 00:46:53;;;;;;;1.20;1.10;;;18.20;46.00;;;;;;6193970;23;20157;-85
2022/04/16 00:49:19;;;;;;;1.50;1.40;;;18.20;45.90;;;;;;6194317;23;20184;-84
2022/04/16 00:51:46;;;;;;;1.33;1.23;;;18.20;46.00;;;;;;6220005;23;20129;-84
2022/04/16 00:54:12;;;;;;;1.00;1.00;;;18.20;46.20;;;;;;6220073;23;20130;-84
2022/04/16 00:56:38;;;;;;;1.40;1.30;;;18.20;45.90;;;;;;6195121;23;20152;-85
2022/04/16 00:59:04;;;;;;;1.60;1.50;;;18.20;46.00;;;;;;6169429;23;20177;-85
2022/04/16 01:01:31;;;;;;;1.20;1.13;;;18.10;46.00;;;;;;6219076;23;20624;-85
2022/04/16 01:03:57;;;;;;;1.48;1.38;;;18.10;46.00;;;;;;6195125;23;20130;-85
2022/04/16 01:06:22;;;;;;;1.30;1.20;;;18.20;46.10;;;;;;6169841;23;20137;-84
2022/04/16 01:08:48;;;;;;;1.58;1.20;;;18.20;46.00;;;;;;6193986;23;20141;-84
2022/04/16 01:11:16;;;;;;;1.70;1.60;;;18.20;46.00;;;;;;6194167;23;20146;-85
2022/04/16 01:13:48;;;;;;;1.30;1.20;;;18.10;46.10;;;;;;6168221;23;20237;-84
2022/04/16 01:16:15;;;;;;;1.52;1.30;;;18.10;46.00;;;;;;6171264;23;20164;-85
2022/04/16 01:18:47;;;;;;;1.42;1.33;;;18.10;46.10;;;;;;6143876;23;20208;-84
2022/04/16 01:21:14;;;;;;;1.50;1.40;;;18.10;46.10;;;;;;6168320;23;20593;-85
2022/04/16 01:23:41;;;;;;;1.20;1.10;;;18.10;46.10;;;;;;6194660;23;20541;-85
2022/04/16 01:26:09;;;;;;;1.20;1.10;;;18.10;46.20;;;;;;6119782;23;20149;-84
2022/04/16 01:28:34;;;;;;;1.55;1.00;;;18.10;46.20;;;;;;6144012;23;20180;-85
2022/04/16 01:31:04;;;;;;;1.40;1.30;;;18.10;46.20;;;;;;6194238;23;20264;-85
2022/04/16 01:33:32;;;;;;;1.40;1.30;;;18.10;46.20;;;;;;6168906;23;20149;-84
2022/04/16 01:35:59;;;;;;;1.40;1.30;;;18.10;46.00;;;;;;6143890;23;20573;-84
2022/04/16 01:38:26;;;;;;;1.40;1.30;;;18.10;46.20;;;;;;6143792;23;20220;-85
2022/04/16 01:40:55;;;;;;;1.40;1.25;;;18.10;46.30;;;;;;6194615;23;20137;-85
2022/04/16 01:43:23;;;;;;;1.63;1.52;;;18.00;46.00;;;;;;6194558;23;20179;-85
2022/04/16 01:45:51;;;;;;;1.30;1.20;;;18.10;46.10;;;;;;6168711;23;20153;-83
2022/04/16 01:48:18;;;;;;;1.45;1.35;;;18.10;46.00;;;;;;6169557;23;20161;-84
2022/04/16 01:50:51;;;;;;;1.35;1.25;;;18.10;46.00;;;;;;6170956;23;20149;-85
2022/04/16 01:53:20;;;;;;;1.27;1.17;;;18.00;46.10;;;;;;6171038;23;20224;-84
2022/04/16 01:55:48;;;;;;;1.27;1.17;;;18.10;46.00;;;;;;6147672;23;20181;-84
2022/04/16 01:58:16;;;;;;;1.23;1.13;;;18.10;46.20;;;;;;6146658;23;20207;-85
2022/04/16 02:00:42;;;;;;;1.27;1.17;;;18.10;46.40;;;;;;6146758;23;20157;-84
2022/04/16 02:03:10;;;;;;;1.25;1.13;;;18.10;46.30;;;;;;6172940;23;20138;-85
2022/04/16 02:05:36;;;;;;;1.15;1.05;;;18.10;46.30;;;;;;6171168;23;20154;-85
2022/04/16 02:08:04;;;;;;;1.35;1.25;;;18.00;46.10;;;;;;6195864;23;20210;-85
2022/04/16 02:10:34;;;;;;;1.42;1.30;;;18.10;46.10;;;;;;6170779;23;20593;-85
2022/04/16 02:13:02;;;;;;;1.95;1.30;;;18.10;46.40;;;;;;6146950;23;20153;-85
2022/04/16 02:15:30;;;;;;;1.60;1.20;;;18.10;46.40;;;;;;6170599;23;20177;-84
2022/04/16 02:17:56;;;;;;;1.17;1.13;;;18.00;46.20;;;;;;6170254;23;20240;-84
2022/04/16 02:20:24;;;;;;;1.30;1.20;;;18.10;46.40;;;;;;6196446;23;20135;-84
2022/04/16 02:22:52;;;;;;;1.40;1.30;;;18.10;46.30;;;;;;6170277;23;20480;-85
2022/04/16 02:25:23;;;;;;;1.23;1.13;;;18.00;46.10;;;;;;6145886;23;20161;-85
2022/04/16 02:27:52;;;;;;;1.60;1.42;;;18.00;46.30;;;;;;6172486;23;20153;-85
2022/04/16 02:30:17;;;;;;;1.55;1.45;;;18.00;46.20;;;;;;6146056;23;20156;-84
2022/04/16 02:32:45;;;;;;;1.63;1.30;;;18.00;46.40;;;;;;6196493;23;20141;-85
2022/04/16 02:35:14;;;;;;;1.40;1.30;;;18.00;46.30;;;;;;6171392;23;20146;-84
2022/04/16 02:37:39;;;;;;;1.40;1.30;;;18.00;46.40;;;;;;6146425;23;20524;-84
2022/04/16 02:40:05;;;;;;;1.40;1.30;;;18.10;46.40;;;;;;6195696;23;20171;-85
2022/04/16 02:42:36;;;;;;;1.40;1.30;;;18.00;46.30;;;;;;6195734;23;20181;-84
2022/04/16 02:47:51;;;;;;;1.05;1.05;;;18.00;46.50;;;;;;6181689;23;20168;-84
2022/04/16 02:50:19;;;;;;;1.67;1.23;;;18.00;46.40;;;;;;6146104;23;20171;-84
2022/04/16 02:52:46;;;;;;;1.27;1.17;;;18.00;46.40;;;;;;6170654;23;20153;-84
2022/04/16 02:55:15;;;;;;;1.38;1.27;;;18.00;46.40;;;;;;6220790;23;20134;-84
2022/04/16 02:57:42;;;;;;;1.63;1.50;;;18.00;46.40;;;;;;6196200;23;20145;-84
2022/04/16 03:00:10;;;;;;;1.40;1.30;;;18.00;46.40;;;;;;6170999;23;20251;-84
2022/04/16 03:02:37;;;;;;;1.30;1.20;;;18.00;46.60;;;;;;6145489;23;20204;-84
2022/04/16 03:05:06;;;;;;;1.13;1.02;;;18.00;46.30;;;;;;6169658;23;20161;-85
2022/04/16 03:07:34;;;;;;;1.15;1.05;;;18.00;46.30;;;;;;6146227;23;20159;-84
2022/04/16 03:10:02;;;;;;;1.40;1.30;;;18.00;46.70;;;;;;6145463;23;20160;-84
2022/04/16 03:12:44;;;;;;;1.08;0.98;;;18.00;46.20;;;;;;6121282;23;20153;-84
2022/04/16 03:18:01;;;;;;;1.20;1.10;;;18.00;46.50;;;;;;6183176;23;20149;-84
2022/04/16 03:20:29;;;;;;;1.25;1.15;;;18.00;46.50;;;;;;6169880;23;20601;-84
2022/04/16 03:22:57;;;;;;;1.50;1.40;;;18.00;46.50;;;;;;6170398;23;20607;-84
2022/04/16 03:25:24;;;;;;;1.30;1.20;;;17.90;46.60;;;;;;6144834;23;20236;-85
2022/04/16 03:27:52;;;;;;;1.45;1.30;;;18.00;46.60;;;;;;6145362;23;20211;-85
2022/04/16 03:30:23;;;;;;;1.55;1.45;;;18.00;46.70;;;;;;6145353;23;20149;-85
2022/04/16 03:32:50;;;;;;;1.35;1.25;;;18.00;46.70;;;;;;6145861;23;20145;-85
2022/04/16 03:35:18;;;;;;;1.40;1.30;;;17.90;46.40;;;;;;6120445;23;20157;-84
2022/04/16 03:37:44;;;;;;;1.52;1.40;;;17.90;46.60;;;;;;6195499;23;20197;-84
2022/04/16 03:40:10;;;;;;;1.40;1.30;;;17.90;46.70;;;;;;6170078;23;20628;-84
2022/04/16 03:42:44;;;;;;;1.45;1.35;;;18.00;46.70;;;;;;6170844;23;20589;-85
2022/04/16 03:45:14;;;;;;;1.30;1.20;;;18.00;46.50;;;;;;6195251;23;20456;-84
2022/04/16 03:47:40;;;;;;;1.30;1.20;;;17.90;46.70;;;;;;6171912;23;20139;-84
2022/04/16 03:50:06;;;;;;;1.27;1.17;;;17.90;46.50;;;;;;6194976;23;20228;-84
2022/04/16 03:52:41;;;;;;;1.20;1.10;;;18.00;46.80;;;;;;6170203;23;20196;-84
2022/04/16 04:00:32;;;;;;;1.35;1.25;;;17.90;46.70;;;;;;6223217;23;20187;-84
2022/04/16 04:02:57;;;;;;;1.10;1.00;;;17.90;46.60;;;;;;6169757;23;20275;-85
2022/04/16 04:05:23;;;;;;;1.50;1.20;;;17.90;46.80;;;;;;6195355;23;20152;-84
2022/04/16 04:07:49;;;;;;;1.45;1.30;;;17.90;46.70;;;;;;6220263;23;20137;-85
2022/04/16 04:10:16;;;;;;;1.27;1.17;;;17.90;46.50;;;;;;6246810;23;20139;-85
2022/04/16 04:12:45;;;;;;;1.38;1.27;;;17.90;46.60;;;;;;6220036;23;20133;-84
2022/04/16 04:15:14;;;;;;;1.85;1.00;;;17.80;46.70;;;;;;6194125;23;20211;-85
2022/04/16 04:17:43;;;;;;;1.40;1.30;;;17.90;46.60;;;;;;6169364;23;20149;-85
2022/04/16 04:20:12;;;;;;;1.13;1.02;;;17.80;46.60;;;;;;6168570;23;20196;-85
2022/04/16 04:22:41;;;;;;;1.35;1.20;;;17.90;46.60;;;;;;6168567;23;20244;-84
2022/04/16 04:25:10;;;;;;;1.33;1.23;;;17.90;46.50;;;;;;6120612;23;20160;-84
2022/04/16 04:27:39;;;;;;;1.23;1.13;;;17.90;46.50;;;;;;6168918;23;20153;-85
2022/04/16 04:30:05;;;;;;;1.40;1.30;;;17.90;46.50;;;;;;6168955;23;20165;-85
2022/04/16 04:32:30;;;;;;;1.30;1.20;;;17.90;46.50;;;;;;6195082;23;20153;-85
2022/04/16 04:34:56;;;;;;;1.30;1.20;;;17.90;46.70;;;;;;6169754;23;20640;-84
2022/04/16 04:37:22;;;;;;;1.35;1.25;;;18.00;46.70;;;;;;6170129;23;20173;-85
2022/04/16 04:39:48;;;;;;;2.33;1.55;;;17.90;46.70;;;;;;6169680;23;20257;-84
2022/04/16 04:42:23;;;;;;;2.15;1.20;;;17.90;46.60;;;;;;6194791;23;20137;-85
2022/04/16 04:44:48;;;;;;;1.13;1.02;;;17.90;46.40;;;;;;6194483;23;20430;-86
2022/04/16 04:47:14;;;;;;;1.33;1.23;;;17.90;46.60;;;;;;6219638;23;20137;-85
2022/04/16 04:49:39;;;;;;;1.10;1.10;;;18.00;46.40;;;;;;6219593;23;20138;-84
2022/04/16 04:52:09;;;;;;;1.10;1.10;;;18.00;47.10;;;;;;6246577;23;20130;-85
2022/04/16 04:54:39;;;;;;;1.20;1.10;;;18.00;46.50;;;;;;6144499;23;20282;-84
2022/04/16 04:57:07;;;;;;;1.20;1.10;;;18.00;46.40;;;;;;6168895;23;20457;-84
2022/04/16 04:59:34;;;;;;;1.52;1.10;;;18.00;46.30;;;;;;6144177;23;20212;-85
2022/04/16 05:01:59;;;;;;;1.48;1.38;;;18.10;46.50;;;;;;6143450;23;20536;-84
2022/04/16 05:04:25;;;;;;;1.33;1.23;;;18.10;46.20;;;;;;6246467;23;20160;-84
2022/04/16 05:06:51;;;;;;;1.33;1.23;;;18.10;46.10;;;;;;6246362;23;20208;-85
2022/04/16 05:09:16;;;;;;;1.48;1.38;;;18.10;46.10;;;;;;6219255;23;20156;-84
2022/04/16 05:11:42;;;;;;;1.50;1.25;;;18.10;46.10;;;;;;6246246;23;20125;-85
2022/04/16 05:14:07;;;;;;;1.45;1.10;;;18.10;46.20;;;;;;6245911;23;20133;-84
2022/04/16 05:16:33;;;;;;;1.20;1.10;;;18.10;46.00;;;;;;6246077;23;20126;-84
2022/04/16 05:18:59;;;;;;;1.25;1.15;;;18.00;46.00;;;;;;6194622;23;20176;-84
2022/04/16 05:21:24;;;;;;;1.23;1.10;;;18.10;46.00;;;;;;6246043;23;20171;-84
2022/04/16 05:23:50;;;;;;;1.73;1.45;;;18.10;46.10;;;;;;6194284;23;20129;-85
2022/04/16 05:26:15;;;;;;;1.42;1.33;;;18.10;46.00;;;;;;6219816;23;20141;-85
2022/04/16 05:28:41;;;;;;;1.20;1.10;;;18.10;45.90;;;;;;6219117;23;20175;-84
2022/04/16 05:31:08;;;;;;;1.40;1.30;;;18.00;45.90;;;;;;6219404;23;20230;-84
2022/04/16 05:36:17;;;;;;;1.15;1.13;;;18.10;45.90;;;;;;6245956;23;20176;-84
2022/04/16 05:38:44;;;;;;;1.35;1.25;;;18.10;46.00;;;;;;6169979;23;20177;-85
2022/04/16 05:41:10;;;;;;;1.27;1.10;;;18.20;46.00;;;;;;6194334;23;20573;-85
2022/04/16 05:43:35;;;;;;;1.50;1.40;;;18.10;46.00;;;;;;6169221;23;20182;-85
2022/04/16 05:46:02;;;;;;;1.20;1.10;;;18.20;45.90;;;;;;6169539;23;20152;-85
2022/04/16 05:48:29;;;;;;;1.27;1.17;;;18.10;45.70;;;;;;6169026;23;20145;-85
2022/04/16 05:50:57;;;;;;;1.40;1.30;;;18.10;46.00;;;;;;6193782;23;20145;-85
2022/04/16 05:53:22;;;;;;;1.27;1.17;;;18.00;46.00;;;;;;6194838;23;20145;-84
2022/04/16 05:55:50;;;;;;;1.30;1.20;;;18.00;46.00;;;;;;6246168;23;20136;-85
2022/04/16 05:58:16;;;;;;;1.50;1.20;;;18.10;46.00;;;;;;6195104;23;20153;-84
2022/04/16 06:00:42;;;;;;;1.30;1.20;;;18.10;46.10;;;;;;6219083;23;20130;-85
2022/04/16 06:03:08;;;;;;;1.60;1.50;;;18.10;46.00;;;;;;6169324;23;20592;-85
2022/04/16 06:05:33;;;;;;;1.40;1.30;;;18.10;46.00;;;;;;6194462;23;20221;-85
2022/04/16 06:07:59;;;;;;;1.30;1.20;;;18.10;46.00;;;;;;6219025;23;20204;-85
2022/04/16 06:10:25;;;;;;;1.00;1.00;;;18.10;46.10;;;;;;6194662;23;20180;-85
2022/04/16 06:12:51;;;;;;;1.48;1.38;;;18.10;46.10;;;;;;6219367;23;20133;-85
2022/04/16 06:15:18;;;;;;;1.40;1.30;;;18.10;46.20;;;;;;6193790;23;20130;-85
2022/04/16 06:17:43;;;;;;;1.30;1.20;;;18.10;46.10;;;;;;6194198;23;20134;-85
2022/04/16 06:20:10;;;;;;;1.10;1.05;;;18.00;46.20;;;;;;6245439;23;20169;-85
2022/04/16 06:22:36;;;;;;;1.20;1.13;;;18.00;46.20;;;;;;6194158;23;20141;-84
2022/04/16 06:25:02;;;;;;;1.30;1.20;;;18.00;46.10;;;;;;6194355;23;20134;-84
2022/04/16 06:27:28;;;;;;;1.20;1.10;;;18.10;46.10;;;;;;6193609;23;20142;-85
2022/04/16 06:29:55;;;;;;;1.52;1.30;;;18.00;46.00;;;;;;6218754;23;20221;-85
2022/04/16 06:32:21;;;;;;;1.30;1.20;;;18.10;46.20;;;;;;6218615;23;20129;-85
2022/04/16 06:34:50;;;;;;;1.20;1.10;;;18.10;46.00;;;;;;6218514;23;20132;-86
2022/04/16 06:37:20;;;;;;;1.27;1.17;;;18.10;45.90;;;;;;6143955;23;20232;-85
2022/04/16 06:39:46;;;;;;;1.20;1.10;;;18.10;45.90;;;;;;6143939;23;20247;-85
2022/04/16 06:42:12;;;;;;;1.38;1.27;;;18.10;45.80;;;;;;6193846;23;20141;-85
2022/04/16 06:44:38;;;;;;;1.30;1.20;;;18.20;45.70;;;;;;6219018;23;20611;-85
2022/04/16 06:47:04;;;;;;;1.50;1.33;;;18.20;45.70;;;;;;6220956;23;20137;-84
2022/04/16 06:49:34;;;;;;;1.30;1.20;;;18.30;45.60;;;;;;6195242;23;20145;-87
2022/04/16 06:51:59;;;;;;;1.13;1.02;;;18.20;45.60;;;;;;6170215;23;20146;-87
2022/04/16 06:54:25;;;;;;;1.08;1.08;;;18.40;45.40;;;;;;6195581;23;20145;-87
2022/04/16 06:56:50;;;;;;;1.35;1.25;;;18.30;45.50;;;;;;6247445;23;20165;-87
2022/04/16 06:59:16;;;;;;;1.27;1.17;;;18.30;45.40;;;;;;6196000;23;20200;-88
2022/04/16 07:01:42;;;;;;;1.23;1.13;;;18.20;45.40;;;;;;6220519;23;20185;-86
2022/04/16 07:04:08;;;;;;;1.13;1.02;;;18.30;45.20;;;;;;6220789;23;20149;-87
2022/04/16 07:06:34;;;;;;;1.45;1.35;;;18.40;45.20;;;;;;6247338;23;20142;-88
2022/04/16 07:09:04;;;;;;;1.40;1.30;;;18.40;45.10;;;;;;6220977;23;20161;-87
2022/04/16 07:11:30;;;;;;;1.30;1.20;;;18.40;45.00;;;;;;6166957;23;20153;-88
2022/04/16 07:13:55;;;;;;;1.30;1.20;;;18.40;44.60;;;;;;6194827;23;20145;-86
2022/04/16 07:16:25;;;;;;;1.13;1.05;;;18.50;44.80;;;;;;6246342;23;20580;-87
2022/04/16 07:18:51;;;;;;;1.20;1.10;;;18.50;44.60;;;;;;6144015;23;20208;-87
2022/04/16 07:21:21;;;;;;;1.65;1.10;;;18.60;44.50;;;;;;6194263;23;20557;-86
2022/04/16 07:23:51;;;;;;;1.00;0.90;;;18.60;44.60;;;;;;6168348;23;20153;-87
2022/04/16 07:26:17;;;;;;;1.67;1.10;;;18.60;44.30;;;;;;6170122;23;20588;-86
2022/04/16 07:28:43;;;;;;;1.40;1.20;;;18.60;44.20;;;;;;6221282;23;20145;-87
2022/04/16 07:31:09;;;;;;;2.78;1.20;;;18.60;44.00;;;;;;6220588;23;20130;-87
2022/04/16 07:33:35;;;;;;;1.08;0.98;;;18.60;44.30;;;;;;6247865;23;20130;-87
2022/04/16 07:36:04;;;;;;;0.93;0.93;;;18.60;43.90;;;;;;6195728;23;20161;-87
2022/04/16 07:38:30;;;;;;;1.17;1.08;;;18.70;43.80;;;;;;6170212;23;20181;-87
2022/04/16 07:41:02;;;;;;;1.10;1.00;;;18.70;44.00;;;;;;6220662;23;20137;-87
2022/04/16 07:43:29;;;;;;;1.45;1.10;;;18.70;43.60;;;;;;6146767;23;20150;-87
2022/04/16 07:45:55;;;;;;;2.35;0.95;;;18.70;43.60;;;;;;6195913;23;20161;-87
2022/04/16 07:48:24;;;;;;;0.95;0.90;;;18.70;43.70;;;;;;6220782;23;20133;-88
2022/04/16 07:50:50;;;;;;;1.60;0.85;;;18.70;43.50;;;;;;6169827;23;20242;-87
2022/04/16 07:53:16;;;;;;;1.08;0.93;;;18.60;43.30;;;;;;6247622;23;20464;-87
2022/04/16 07:55:42;;;;;;;1.20;1.10;;;18.80;43.20;;;;;;6195419;23;20152;-87
2022/04/16 07:58:13;;;;;;;1.80;1.25;;;18.90;43.10;;;;;;6246683;23;20134;-87
2022/04/16 08:00:38;;;;;;;1.48;1.08;;;18.90;43.00;;;;;;6170057;23;20203;-87
2022/04/16 08:03:04;;;;;;;2.42;1.10;;;18.90;43.00;;;;;;6170437;23;20569;-87
2022/04/16 08:05:34;;;;;;;1.40;1.30;;;18.90;43.10;;;;;;6220164;23;20209;-87
2022/04/16 08:08:00;;;;;;;1.00;1.00;;;18.90;43.00;;;;;;6144890;23;20157;-87
2022/04/16 08:10:26;;;;;;;1.23;0.77;;;18.90;42.90;;;;;;6194798;23;20157;-88
2022/04/16 08:12:52;;;;;;;1.08;1.00;;;18.90;43.20;;;;;;6195884;23;20570;-87
2022/04/16 08:15:18;;;;;;;1.10;1.00;;;18.90;42.90;;;;;;6220095;23;20573;-87
2022/04/16 08:17:44;;;;;;;1.10;1.02;;;18.90;42.40;;;;;;6220449;23;20129;-87
2022/04/16 08:20:10;;;;;;;0.88;0.88;;;19.00;42.60;;;;;;6219976;23;20173;-87
2022/04/16 08:22:38;;;;;;;1.40;1.20;;;19.00;42.60;;;;;;6194172;23;20476;-87
2022/04/16 08:27:47;;;;;;;1.35;1.25;;;18.90;42.50;;;;;;6223706;23;20134;-87
2022/04/16 08:30:13;;;;;;;1.95;0.88;;;19.00;42.70;;;;;;6195368;23;20149;-87
2022/04/16 08:32:41;;;;;;;1.17;1.08;;;19.00;41.80;;;;;;6219867;23;20134;-87
2022/04/16 08:35:08;;;;;;;1.20;1.10;;;19.10;41.90;;;;;;6220473;23;20129;-87
2022/04/16 08:37:38;;;;;;;1.20;1.10;;;19.20;42.00;;;;;;6196551;23;20597;-87
2022/04/16 08:40:09;;;;;;;1.08;1.00;;;19.20;41.80;;;;;;6120492;23;20259;-87
2022/04/16 08:42:36;;;;;;;1.92;1.17;;;19.10;42.10;;;;;;6120805;23;20153;-87
2022/04/16 08:45:02;;;;;;;2.92;1.10;;;19.10;41.90;;;;;;6219883;23;20212;-87
2022/04/16 08:47:32;;;;;;;1.08;1.00;;;19.10;42.00;;;;;;6219804;23;20126;-87
2022/04/16 08:49:59;;;;;;;0.95;0.93;;;19.00;42.40;;;;;;6169192;23;20154;-87
2022/04/16 08:52:29;;;;;;;1.45;1.10;;;19.00;42.10;;;;;;6219905;23;20130;-87
2022/04/16 08:54:55;;;;;;;1.10;1.00;;;19.10;42.30;;;;;;6195185;23;20141;-88
2022/04/16 08:57:21;;;;;;;1.00;0.98;;;19.10;42.00;;;;;;6219765;23;20454;-86
2022/04/16 08:59:50;;;;;;;1.25;0.85;;;19.00;42.20;;;;;;6246437;23;20168;-87
2022/04/16 09:02:19;;;;;;;1.00;1.00;;;19.00;42.20;;;;;;6194959;23;20200;-87
2022/04/16 09:04:45;;;;;;;0.88;0.85;;;19.00;41.70;;;;;;6219204;23;20220;-87
2022/04/16 09:07:11;;;;;;;2.28;0.98;;;19.20;41.30;;;;;;6220945;23;20220;-87
2022/04/16 09:09:38;;;;;;;0.95;0.93;;;19.10;41.50;;;;;;6196938;23;20150;-88
2022/04/16 09:12:14;;;;;;;1.13;1.10;;;19.10;41.60;;;;;;6220349;23;20129;-87
2022/04/16 09:14:44;;;;;;;1.77;1.10;;;19.20;41.60;;;;;;6220860;23;20173;-88
2022/04/16 09:17:15;;;;;;;1.17;1.08;;;19.20;41.00;;;;;;6195964;23;20268;-86
2022/04/16 09:19:41;;;;;;;1.00;0.90;;;19.20;41.90;;;;;;6195615;23;20264;-87
2022/04/16 09:22:08;;;;;;;1.42;1.10;;;19.10;42.00;;;;;;6220224;23;20134;-87
2022/04/16 09:24:53;;;;;;;1.13;1.00;;;19.10;41.90;;;;;;6220075;23;20149;-87
2022/04/16 09:27:19;;;;;;;2.83;1.02;;;19.20;41.80;;;;;;6170880;23;20572;-87
2022/04/16 09:29:45;;;;;;;3.42;1.02;;;19.10;42.20;;;;;;6247707;23;20134;-86
2022/04/16 09:32:22;;;;;;;1.27;1.00;;;19.10;41.80;;;;;;6222201;23;20129;-88
2022/04/16 09:34:52;;;;;;;1.15;1.05;;;19.10;42.40;;;;;;6221261;23;20125;-87
2022/04/16 09:37:23;;;;;;;1.30;1.20;;;19.10;42.20;;;;;;6123691;23;20149;-87
2022/04/16 09:39:52;;;;;;;1.50;1.20;;;19.10;42.40;;;;;;6146633;23;20195;-87
2022/04/16 09:42:26;;;;;;;1.27;1.05;;;19.00;42.40;;;;;;6144985;23;20177;-87
2022/04/16 09:44:52;;;;;;;1.45;1.20;;;19.00;42.60;;;;;;6195929;23;20445;-87
2022/04/16 09:47:20;;;;;;;1.02;0.80;;;19.00;42.00;;;;;;6219908;23;20145;-87
2022/04/16 09:49:47;;;;;;;0.82;0.82;;;19.00;42.30;;;;;;6220021;23;20149;-87
2022/04/16 09:52:13;;;;;;;1.20;1.10;;;19.00;42.40;;;;;;6220433;23;20183;-87
2022/04/16 09:54:39;;;;;;;0.90;0.90;;;19.00;42.40;;;;;;6246221;23;20133;-87
2022/04/16 09:57:09;;;;;;;1.40;1.30;;;19.00;42.20;;;;;;6220273;23;20137;-86
2022/04/16 09:59:42;;;;;;;1.20;1.10;;;18.90;42.10;;;;;;6169286;23;20633;-86
2022/04/16 10:02:08;;;;;;;0.90;0.90;;;18.90;42.10;;;;;;6144291;23;20204;-86
2022/04/16 10:04:34;;;;;;;1.00;1.00;;;18.90;42.30;;;;;;6194586;23;20157;-86
2022/04/16 10:07:00;;;;;;;1.48;1.20;;;18.90;42.20;;;;;;6194808;23;20177;-86
2022/04/16 10:09:27;;;;;;;1.20;1.10;;;18.90;42.50;;;;;;6194027;23;20142;-86
2022/04/16 10:14:47;;;;;;;1.35;1.00;;;18.90;42.50;;;;;;6222064;23;20511;-86
2022/04/16 10:17:28;;;;;;;1.10;1.00;;;18.80;42.70;;;;;;6194466;23;20141;-87
2022/04/16 10:20:00;;;;;;;1.67;1.10;;;18.90;42.50;;;;;;6219367;23;20172;-87
2022/04/16 10:22:27;;;;;;;1.15;1.05;;;18.80;42.40;;;;;;6196947;23;20722;-87
2022/04/16 10:24:57;;;;;;;1.20;1.10;;;18.90;42.50;;;;;;6220977;23;20133;-86
2022/04/16 10:27:31;;;;;;;1.40;1.17;;;18.80;42.60;;;;;;6221680;23;20126;-87
2022/04/16 10:30:01;;;;;;;1.33;1.20;;;18.80;42.30;;;;;;6221683;23;20145;-86
2022/04/16 10:32:44;;;;;;;1.50;1.00;;;18.80;42.40;;;;;;6248153;23;20568;-86
2022/04/16 10:35:15;;;;;;;2.15;1.35;;;18.80;42.30;;;;;;6221399;23;20133;-86
2022/04/16 10:37:42;;;;;;;1.35;1.02;;;18.90;42.80;;;;;;6221211;23;20226;-87
2022/04/16 10:40:18;;;;;;;1.27;1.10;;;18.80;41.90;;;;;;6195850;23;20203;-86
2022/04/16 10:42:48;;;;;;;2.70;1.00;;;18.90;42.40;;;;;;6195906;23;20478;-86
2022/04/16 10:45:14;;;;;;;1.05;0.88;;;18.90;42.60;;;;;;6221013;23;20627;-87
2022/04/16 10:47:41;;;;;;;1.08;1.02;;;18.80;42.30;;;;;;6195696;23;20168;-87
2022/04/16 10:50:17;;;;;;;1.20;1.02;;;18.90;42.50;;;;;;6196106;23;20240;-87
2022/04/16 10:52:59;;;;;;;0.80;0.80;;;18.90;42.40;;;;;;6221412;23;20168;-86
2022/04/16 10:55:30;;;;;;;1.00;0.90;;;18.90;41.90;;;;;;6220874;23;20179;-86
2022/04/16 10:58:03;;;;;;;1.02;0.90;;;18.90;42.20;;;;;;6221838;23;20137;-86
2022/04/16 11:00:45;;;;;;;1.42;1.13;;;18.80;42.50;;;;;;6220834;23;20216;-87
2022/04/16 11:03:17;;;;;;;1.75;0.93;;;18.80;42.40;;;;;;6220939;23;20175;-86
2022/04/16 11:05:44;;;;;;;1.42;1.05;;;18.80;42.30;;;;;;6221426;23;20126;-86
2022/04/16 11:08:12;;;;;;;1.13;1.02;;;18.80;42.40;;;;;;6195773;23;20469;-86
2022/04/16 11:10:38;;;;;;;0.93;0.93;;;18.80;42.70;;;;;;6195613;23;20193;-86
2022/04/16 11:13:04;;;;;;;1.08;0.98;;;18.80;42.40;;;;;;6195673;23;20228;-86
2022/04/16 11:15:30;;;;;;;2.65;1.00;;;18.80;42.60;;;;;;6220283;23;20145;-86
2022/04/16 11:17:57;;;;;;;1.30;0.82;;;18.80;42.00;;;;;;6220916;23;20498;-86
2022/04/16 11:20:23;;;;;;;1.05;0.95;;;18.90;42.10;;;;;;6195894;23;20512;-86
2022/04/16 11:22:49;;;;;;;1.20;1.10;;;18.90;42.40;;;;;;6220819;23;20121;-86
2022/04/16 11:25:21;;;;;;;0.88;0.88;;;18.90;42.30;;;;;;6247847;23;20136;-86
2022/04/16 11:36:01;;;;;;;1.23;1.00;;;18.80;42.40;;;;;;6224358;23;20133;-86
2022/04/16 11:38:29;;;;;;;1.33;1.10;;;18.80;42.60;;;;;;6145370;23;20153;-86
2022/04/16 11:40:57;;;;;;;1.00;1.00;;;18.80;42.40;;;;;;6195680;23;20145;-86
2022/04/16 11:43:24;;;;;;;1.00;1.00;;;18.80;42.30;;;;;;6220337;23;20138;-87
2022/04/16 11:45:50;;;;;;;1.13;1.02;;;18.80;41.90;;;;;;6220752;23;20145;-87
2022/04/16 11:48:16;;;;;;;1.25;0.98;;;18.90;42.10;;;;;;6195777;23;20211;-86
2022/04/16 11:50:43;;;;;;;1.30;1.20;;;18.90;42.20;;;;;;6220211;23;20220;-86
2022/04/16 11:53:15;;;;;;;2.33;1.13;;;18.90;42.10;;;;;;6195197;23;20149;-87
2022/04/16 11:55:45;;;;;;;1.80;1.33;;;18.80;42.30;;;;;;6120501;23;20156;-86
2022/04/16 11:58:11;;;;;;;1.17;1.10;;;18.80;42.20;;;;;;6221548;23;20129;-86
2022/04/16 12:00:47;;;;;;;1.10;1.00;;;18.80;42.20;;;;;;6222339;23;20130;-86
2022/04/16 12:03:14;;;;;;;1.15;1.00;;;18.80;42.10;;;;;;6249000;23;20254;-86
2022/04/16 12:05:42;;;;;;;2.13;1.10;;;18.80;42.00;;;;;;6197533;23;20153;-85
2022/04/16 12:08:09;;;;;;;3.20;1.10;;;18.80;42.20;;;;;;6198391;23;20276;-85
2022/04/16 12:10:42;;;;;;;8.77;1.65;;;18.80;41.90;;;;;;6200814;23;20215;-87
2022/04/16 12:13:14;;;;;;;2.63;1.08;;;18.80;42.00;;;;;;6155858;23;20584;-86
2022/04/16 12:15:42;;;;;;;1.48;1.10;;;18.80;42.20;;;;;;6148048;23;20484;-87
2022/04/16 12:18:11;;;;;;;1.50;1.25;;;18.70;42.20;;;;;;6198102;23;20148;-87
2022/04/16 12:20:41;;;;;;;3.67;1.17;;;18.80;42.60;;;;;;6198453;23;20200;-86
2022/04/16 12:23:27;;;;;;;5.60;1.10;;;18.90;42.50;;;;;;6196649;23;20138;-85
2022/04/16 12:26:11;;;;;;;6.65;1.80;;;18.80;42.30;;;;;;6179659;23;20156;-86
2022/04/16 12:28:47;;;;;;;7.43;2.15;;;18.70;42.40;;;;;;6220635;23;20221;-86
2022/04/16 12:31:34;;;;;;;8.57;2.13;;;18.70;42.20;;;;;;6220760;23;20138;-86
2022/04/16 12:34:01;;;;;;;6.80;2.13;;;18.80;42.00;;;;;;6170871;23;20149;-86
2022/04/16 12:36:27;;;;;;;9.98;2.55;;;18.80;42.00;;;;;;6196108;23;20145;-86
2022/04/16 12:38:54;;;;;;;7.60;1.98;;;18.80;42.00;;;;;;6195001;23;20640;-86
2022/04/16 12:41:20;;;;;;;9.18;2.13;;;18.80;42.00;;;;;;6195208;23;20140;-86
2022/04/16 12:43:47;;;;;;;5.47;2.00;;;18.80;42.10;;;;;;6220013;23;20619;-86
2022/04/16 12:46:13;;;;;;;5.85;1.75;;;18.80;42.30;;;;;;6196315;23;20220;-87
2022/04/16 12:48:41;;;;;;;6.18;1.83;;;18.80;42.10;;;;;;6171867;23;20477;-85
2022/04/16 12:51:07;;;;;;;6.35;2.05;;;18.80;42.10;;;;;;6121272;23;20529;-86
2022/04/16 12:53:35;;;;;;;4.22;1.70;;;18.80;42.30;;;;;;6247034;23;20132;-86
2022/04/16 12:56:01;;;;;;;5.43;1.70;;;18.90;41.90;;;;;;6144254;23;20605;-86
2022/04/16 12:58:27;;;;;;;5.53;1.70;;;18.70;41.80;;;;;;6220449;23;20137;-85
2022/04/16 13:00:52;;;;;;;3.35;1.73;;;18.80;41.90;;;;;;6196566;23;20475;-82
2022/04/16 13:03:19;;;;;;;5.53;1.60;;;18.80;42.10;;;;;;6197458;23;20472;-85
2022/04/16 13:05:44;;;;;;;4.05;1.52;;;18.80;42.40;;;;;;6172706;23;20226;-86
2022/04/16 13:08:13;;;;;;;5.60;1.63;;;18.80;41.90;;;;;;6170540;23;20160;-86
2022/04/16 13:10:39;;;;;;;3.58;1.60;;;18.80;41.90;;;;;;6171858;23;20192;-86
2022/04/16 13:13:05;;;;;;;2.92;1.63;;;18.80;42.00;;;;;;6219817;23;20504;-86
2022/04/16 13:15:30;;;;;;;8.32;1.92;;;18.90;41.60;;;;;;6195206;23;20129;-84
2022/04/16 13:17:57;;;;;;;5.13;1.80;;;18.80;41.90;;;;;;6171659;23;20171;-87